Time,TemperatureF,DewpointF,PressureIn,WindDirection,WindDirectionDegrees,WindSpeedMPH,WindSpeedGustMPH,Humidity,HourlyPrecipIn,Conditions,Clouds,dailyrainin,SoftwareType,DateUTC
2013-03-19 00:00:00,66.4,64.0,29.92,WSW,250,5.0,5.0,92,0.00,,,0.00,VWS V14.01,2013-03-19 05:00:00,
2013-03-19 00:05:00,66.3,63.9,29.91,WSW,238,2.0,5.0,92,0.00,,,0.00,VWS V14.01,2013-03-19 05:05:00,
2013-03-19 00:10:00,66.2,63.8,29.90,SW,225,2.0,5.0,92,0.00,,,0.00,VWS V14.01,2013-03-19 05:10:00,
2013-03-19 00:15:00,66.1,64.0,29.91,WNW,296,3.0,5.0,93,0.00,,,0.00,VWS V14.01,2013-03-19 05:15:00,
2013-03-19 00:20:00,66.1,64.0,29.92,WNW,293,3.0,5.0,93,0.00,,,0.00,VWS V14.01,2013-03-19 05:20:00,
2013-03-19 00:25:00,66.0,63.9,29.93,NW,308,4.0,6.0,93,0.00,,,0.00,VWS V14.01,2013-03-19 05:25:00,
2013-03-19 00:30:00,65.9,63.8,29.93,NW,314,8.0,8.0,93,0.00,,,0.00,VWS V14.01,2013-03-19 05:30:00,
2013-03-19 00:35:00,65.9,63.8,29.94,West,278,2.0,9.0,93,0.00,,,0.00,VWS V14.01,2013-03-19 05:35:00,
2013-03-19 00:40:00,65.9,63.8,29.94,NW,309,5.0,9.0,93,0.00,,,0.00,VWS V14.01,2013-03-19 05:40:00,
2013-03-19 00:45:00,65.8,64.0,29.94,WNW,285,3.0,9.0,94,0.00,,,0.00,VWS V14.01,2013-03-19 05:45:00,
2013-03-19 00:50:00,65.8,64.0,29.94,NW,305,3.0,9.0,94,0.00,,,0.00,VWS V14.01,2013-03-19 05:50:00,
2013-03-19 00:55:00,65.8,64.0,29.94,NW,311,1.0,9.0,94,0.00,,,0.00,VWS V14.01,2013-03-19 05:55:00,
2013-03-19 01:00:00,65.8,64.0,29.94,WNW,300,1.0,3.0,94,0.00,,,0.00,VWS V14.01,2013-03-19 06:00:00,
2013-03-19 01:05:00,65.7,63.9,29.93,NNE,16,0.0,3.0,94,0.00,,,0.00,VWS V14.01,2013-03-19 06:05:00,
2013-03-19 01:10:00,65.7,63.9,29.93,SE,134,3.0,3.0,94,0.00,,,0.00,VWS V14.01,2013-03-19 06:10:00,
2013-03-19 01:15:00,65.6,63.8,29.92,SE,139,3.0,4.0,94,0.00,,,0.00,VWS V14.01,2013-03-19 06:15:00,
2013-03-19 01:20:00,65.4,63.6,29.93,SSE,160,2.0,4.0,94,0.00,,,0.00,VWS V14.01,2013-03-19 06:20:00,
2013-03-19 01:25:00,65.4,63.9,29.94,SW,229,1.0,4.0,95,0.00,,,0.00,VWS V14.01,2013-03-19 06:25:00,
2013-03-19 01:30:00,65.3,63.8,29.93,North,354,0.0,1.0,95,0.00,,,0.00,VWS V14.01,2013-03-19 06:30:00,
2013-03-19 01:35:00,65.2,63.7,29.92,ESE,104,2.0,2.0,95,0.00,,,0.00,VWS V14.01,2013-03-19 06:35:00,
2013-03-19 01:40:00,65.2,63.7,29.92,ESE,107,0.0,2.0,95,0.00,,,0.00,VWS V14.01,2013-03-19 06:40:00,
2013-03-19 01:45:00,65.1,63.6,29.92,ESE,107,0.0,2.0,95,0.00,,,0.00,VWS V14.01,2013-03-19 06:45:00,
2013-03-19 01:50:00,65.1,63.6,29.92,ESE,107,0.0,2.0,95,0.00,,,0.00,VWS V14.01,2013-03-19 06:50:00,
2013-03-19 01:55:00,65.0,63.5,29.92,ESE,107,0.0,2.0,95,0.00,,,0.00,VWS V14.01,2013-03-19 06:55:00,
2013-03-19 02:00:00,64.9,63.4,29.92,ESE,107,0.0,0.0,95,0.00,,,0.00,VWS V14.01,2013-03-19 07:00:00,
2013-03-19 02:05:00,64.8,63.6,29.91,ESE,107,0.0,0.0,96,0.00,,,0.00,VWS V14.01,2013-03-19 07:05:00,
2013-03-19 02:10:00,64.9,63.7,29.91,ESE,107,1.0,1.0,96,0.00,,,0.00,VWS V14.01,2013-03-19 07:10:00,
2013-03-19 02:15:00,64.9,63.7,29.92,ESE,108,0.0,1.0,96,0.00,,,0.00,VWS V14.01,2013-03-19 07:15:00,
2013-03-19 02:20:00,65.0,63.8,29.92,ESE,107,0.0,1.0,96,0.00,,,0.00,VWS V14.01,2013-03-19 07:20:00,
2013-03-19 02:25:00,65.0,63.8,29.91,ESE,107,1.0,1.0,96,0.00,,,0.00,VWS V14.01,2013-03-19 07:25:00,
2013-03-19 02:30:00,64.9,63.7,29.91,ESE,108,0.0,0.0,96,0.00,,,0.00,VWS V14.01,2013-03-19 07:30:00,
2013-03-19 02:35:00,65.0,63.8,29.92,ESE,107,0.0,1.0,96,0.00,,,0.00,VWS V14.01,2013-03-19 07:35:00,
2013-03-19 02:40:00,64.8,63.6,29.92,ESE,107,0.0,1.0,96,0.00,,,0.00,VWS V14.01,2013-03-19 07:40:00,
2013-03-19 02:45:00,64.8,63.6,29.92,ESE,107,0.0,1.0,96,0.00,,,0.00,VWS V14.01,2013-03-19 07:45:00,
2013-03-19 02:50:00,64.7,63.5,29.92,ESE,108,0.0,1.0,96,0.00,,,0.00,VWS V14.01,2013-03-19 07:50:00,
2013-03-19 02:55:00,64.8,63.6,29.91,East,101,1.0,2.0,96,0.00,,,0.00,VWS V14.01,2013-03-19 07:55:00,
2013-03-19 03:00:00,64.8,63.6,29.91,ENE,77,2.0,2.0,96,0.00,,,0.00,VWS V14.01,2013-03-19 08:00:00,
2013-03-19 03:05:00,64.8,63.6,29.91,ENE,77,0.0,2.0,96,0.00,,,0.00,VWS V14.01,2013-03-19 08:05:00,
2013-03-19 03:10:00,64.8,63.6,29.91,ENE,77,1.0,2.0,96,0.00,,,0.00,VWS V14.01,2013-03-19 08:10:00,
2013-03-19 03:15:00,64.7,63.5,29.91,ENE,77,0.0,2.0,96,0.00,,,0.00,VWS V14.01,2013-03-19 08:15:00,
2013-03-19 03:20:00,64.7,63.5,29.92,ENE,77,0.0,2.0,96,0.00,,,0.00,VWS V14.01,2013-03-19 08:20:00,
2013-03-19 03:25:00,64.6,63.4,29.91,ENE,77,0.0,2.0,96,0.00,,,0.00,VWS V14.01,2013-03-19 08:25:00,
2013-03-19 03:30:00,64.5,63.3,29.92,ENE,77,0.0,0.0,96,0.00,,,0.00,VWS V14.01,2013-03-19 08:30:00,
2013-03-19 03:35:00,64.5,63.3,29.92,ENE,76,0.0,0.0,96,0.00,,,0.00,VWS V14.01,2013-03-19 08:35:00,
2013-03-19 03:40:00,64.6,63.7,29.92,North,353,2.0,2.0,97,0.00,,,0.00,VWS V14.01,2013-03-19 08:40:00,
2013-03-19 03:45:00,64.6,63.7,29.92,North,359,1.0,2.0,97,0.00,,,0.00,VWS V14.01,2013-03-19 08:45:00,
2013-03-19 03:50:00,64.6,63.7,29.92,North,9,2.0,3.0,97,0.00,,,0.00,VWS V14.01,2013-03-19 08:50:00,
2013-03-19 03:55:00,64.8,63.9,29.92,NNE,26,2.0,3.0,97,0.00,,,0.00,VWS V14.01,2013-03-19 08:55:00,
2013-03-19 04:00:00,65.0,64.1,29.92,North,349,3.0,4.0,97,0.00,,,0.00,VWS V14.01,2013-03-19 09:00:00,
2013-03-19 04:05:00,65.0,64.1,29.92,North,5,3.0,4.0,97,0.00,,,0.00,VWS V14.01,2013-03-19 09:05:00,
2013-03-19 04:10:00,65.0,64.1,29.92,North,357,3.0,5.0,97,0.00,,,0.00,VWS V14.01,2013-03-19 09:10:00,
2013-03-19 04:15:00,65.0,64.1,29.92,NNW,335,3.0,5.0,97,0.00,,,0.00,VWS V14.01,2013-03-19 09:15:00,
2013-03-19 04:20:00,65.0,64.1,29.92,NW,316,3.0,5.0,97,0.00,,,0.00,VWS V14.01,2013-03-19 09:20:00,
2013-03-19 04:25:00,65.0,64.1,29.93,NW,325,1.0,5.0,97,0.00,,,0.00,VWS V14.01,2013-03-19 09:25:00,
2013-03-19 04:30:00,65.0,64.1,29.93,NW,317,2.0,2.0,97,0.00,,,0.00,VWS V14.01,2013-03-19 09:30:00,
2013-03-19 04:35:00,65.0,64.1,29.93,NNW,328,1.0,3.0,97,0.00,,,0.00,VWS V14.01,2013-03-19 09:35:00,
2013-03-19 04:40:00,65.0,64.1,29.93,NW,323,1.0,3.0,97,0.00,,,0.00,VWS V14.01,2013-03-19 09:40:00,
2013-03-19 04:45:00,65.0,64.1,29.94,NW,309,1.0,3.0,97,0.00,,,0.00,VWS V14.01,2013-03-19 09:45:00,
2013-03-19 04:50:00,65.0,64.1,29.94,WNW,297,2.0,3.0,97,0.00,,,0.00,VWS V14.01,2013-03-19 09:50:00,
2013-03-19 04:55:00,64.9,64.0,29.93,WNW,300,2.0,3.0,97,0.00,,,0.00,VWS V14.01,2013-03-19 09:55:00,
2013-03-19 05:00:00,64.9,64.0,29.94,WNW,290,1.0,2.0,97,0.00,,,0.00,VWS V14.01,2013-03-19 10:00:00,
2013-03-19 05:05:00,64.9,64.0,29.95,West,273,1.0,2.0,97,0.00,,,0.00,VWS V14.01,2013-03-19 10:05:00,
2013-03-19 05:10:00,64.9,64.0,29.94,West,281,0.0,2.0,97,0.00,,,0.00,VWS V14.01,2013-03-19 10:10:00,
2013-03-19 05:15:00,64.9,64.0,29.95,West,275,2.0,2.0,97,0.00,,,0.00,VWS V14.01,2013-03-19 10:15:00,
2013-03-19 05:20:00,64.9,64.0,29.96,West,279,2.0,3.0,97,0.00,,,0.00,VWS V14.01,2013-03-19 10:20:00,
2013-03-19 05:25:00,64.9,64.0,29.96,West,280,0.0,3.0,97,0.00,,,0.00,VWS V14.01,2013-03-19 10:25:00,
2013-03-19 05:30:00,65.0,64.1,29.96,West,280,0.0,0.0,97,0.00,,,0.00,VWS V14.01,2013-03-19 10:30:00,
2013-03-19 05:35:00,64.9,64.0,29.95,West,279,0.0,0.0,97,0.00,,,0.00,VWS V14.01,2013-03-19 10:35:00,
2013-03-19 05:40:00,64.9,64.0,29.95,West,280,0.0,0.0,97,0.00,,,0.00,VWS V14.01,2013-03-19 10:40:00,
2013-03-19 05:45:00,64.9,64.0,29.96,West,280,0.0,0.0,97,0.00,,,0.00,VWS V14.01,2013-03-19 10:45:00,
2013-03-19 05:50:00,64.8,63.9,29.96,West,280,0.0,0.0,97,0.00,,,0.00,VWS V14.01,2013-03-19 10:50:00,
2013-03-19 05:55:00,64.8,63.9,29.95,West,280,0.0,0.0,97,0.00,,,0.00,VWS V14.01,2013-03-19 10:55:00,
2013-03-19 06:00:00,64.8,63.9,29.95,West,280,0.0,0.0,97,0.00,,,0.00,VWS V14.01,2013-03-19 11:00:00,
2013-03-19 06:05:00,64.7,63.8,29.95,West,279,0.0,0.0,97,0.00,,,0.00,VWS V14.01,2013-03-19 11:05:00,
2013-03-19 06:10:00,64.6,63.7,29.95,West,280,0.0,0.0,97,0.00,,,0.00,VWS V14.01,2013-03-19 11:10:00,
2013-03-19 06:15:00,64.7,63.8,29.95,West,280,0.0,0.0,97,0.00,,,0.00,VWS V14.01,2013-03-19 11:15:00,
2013-03-19 06:20:00,64.8,63.9,29.95,West,280,0.0,0.0,97,0.00,,,0.00,VWS V14.01,2013-03-19 11:20:00,
2013-03-19 06:25:00,64.7,63.8,29.95,West,280,0.0,0.0,97,0.00,,,0.00,VWS V14.01,2013-03-19 11:25:00,
2013-03-19 06:30:00,64.7,63.8,29.96,West,280,1.0,1.0,97,0.00,,,0.00,VWS V14.01,2013-03-19 11:30:00,
2013-03-19 06:35:00,64.7,63.8,29.95,West,280,0.0,1.0,97,0.00,,,0.00,VWS V14.01,2013-03-19 11:35:00,
2013-03-19 06:40:00,64.6,63.7,29.95,West,280,0.0,1.0,97,0.00,,,0.00,VWS V14.01,2013-03-19 11:40:00,
2013-03-19 06:45:00,64.5,63.6,29.96,West,280,0.0,1.0,97,0.00,,,0.00,VWS V14.01,2013-03-19 11:45:00,
2013-03-19 06:50:00,64.5,63.6,29.95,WSW,256,2.0,2.0,97,0.00,,,0.00,VWS V14.01,2013-03-19 11:50:00,
2013-03-19 06:55:00,64.5,63.6,29.95,WSW,252,0.0,3.0,97,0.00,,,0.00,VWS V14.01,2013-03-19 11:55:00,
2013-03-19 07:00:00,64.4,63.5,29.95,WSW,257,1.0,1.0,97,0.00,,,0.00,VWS V14.01,2013-03-19 12:00:00,
2013-03-19 07:05:00,64.4,63.5,29.96,West,277,1.0,1.0,97,0.00,,,0.00,VWS V14.01,2013-03-19 12:05:00,
2013-03-19 07:10:00,64.4,63.5,29.96,WSW,250,2.0,2.0,97,0.00,,,0.00,VWS V14.01,2013-03-19 12:10:00,
2013-03-19 07:15:00,64.5,63.9,29.97,West,277,1.0,2.0,98,0.00,,,0.00,VWS V14.01,2013-03-19 12:15:00,
2013-03-19 07:20:00,64.6,64.0,29.97,West,281,1.0,2.0,98,0.00,,,0.00,VWS V14.01,2013-03-19 12:20:00,
2013-03-19 07:25:00,64.6,64.0,29.97,West,281,0.0,2.0,98,0.00,,,0.00,VWS V14.01,2013-03-19 12:25:00,
2013-03-19 07:30:00,64.7,64.1,29.97,West,281,0.0,0.0,98,0.00,,,0.00,VWS V14.01,2013-03-19 12:30:00,
2013-03-19 07:35:00,64.9,64.3,29.96,West,281,0.0,1.0,98,0.00,,,0.00,VWS V14.01,2013-03-19 12:35:00,
2013-03-19 07:40:00,64.9,64.3,29.97,West,273,1.0,1.0,98,0.00,,,0.00,VWS V14.01,2013-03-19 12:40:00,
2013-03-19 07:45:00,65.1,64.5,29.97,WSW,250,1.0,1.0,98,0.00,,,0.00,VWS V14.01,2013-03-19 12:45:00,
2013-03-19 07:50:00,65.2,64.6,29.98,WNW,284,1.0,2.0,98,0.00,,,0.00,VWS V14.01,2013-03-19 12:50:00,
2013-03-19 07:55:00,65.4,64.8,29.98,WNW,287,1.0,3.0,98,0.00,,,0.00,VWS V14.01,2013-03-19 12:55:00,
2013-03-19 08:00:00,65.5,64.9,29.98,West,274,0.0,0.0,98,0.00,,,0.00,VWS V14.01,2013-03-19 13:00:00,
2013-03-19 08:05:00,65.7,65.1,29.97,West,274,0.0,0.0,98,0.00,,,0.00,VWS V14.01,2013-03-19 13:05:00,
2013-03-19 08:10:00,65.9,65.3,29.97,West,274,1.0,1.0,98,0.00,,,0.00,VWS V14.01,2013-03-19 13:10:00,
2013-03-19 08:15:00,66.2,65.6,29.98,WNW,301,2.0,2.0,98,0.00,,,0.00,VWS V14.01,2013-03-19 13:15:00,
2013-03-19 08:20:00,66.4,65.8,29.98,West,281,2.0,3.0,98,0.00,,,0.00,VWS V14.01,2013-03-19 13:20:00,
2013-03-19 08:25:00,66.6,66.0,29.98,NW,311,2.0,3.0,98,0.00,,,0.00,VWS V14.01,2013-03-19 13:25:00,
2013-03-19 08:30:00,66.8,66.2,29.98,WNW,296,2.0,3.0,98,0.00,,,0.00,VWS V14.01,2013-03-19 13:30:00,
2013-03-19 08:35:00,67.1,66.2,29.98,WNW,295,2.0,5.0,97,0.00,,,0.00,VWS V14.01,2013-03-19 13:35:00,
2013-03-19 08:40:00,67.3,66.4,29.98,NE,37,5.0,6.0,97,0.00,,,0.00,VWS V14.01,2013-03-19 13:40:00,
2013-03-19 08:45:00,67.5,66.6,29.98,NW,317,4.0,6.0,97,0.00,,,0.00,VWS V14.01,2013-03-19 13:45:00,
2013-03-19 08:50:00,67.7,66.8,29.98,WNW,293,1.0,6.0,97,0.00,,,0.00,VWS V14.01,2013-03-19 13:50:00,
2013-03-19 08:55:00,68.0,66.8,29.98,NW,307,2.0,6.0,96,0.00,,,0.00,VWS V14.01,2013-03-19 13:55:00,
2013-03-19 09:00:00,68.0,66.5,29.98,WNW,293,1.0,2.0,95,0.00,,,0.00,VWS V14.01,2013-03-19 14:00:00,
2013-03-19 09:05:00,68.3,66.8,29.99,NW,316,2.0,4.0,95,0.00,,,0.00,VWS V14.01,2013-03-19 14:05:00,
2013-03-19 09:10:00,68.5,67.0,29.99,WNW,287,1.0,5.0,95,0.00,,,0.00,VWS V14.01,2013-03-19 14:10:00,
2013-03-19 09:15:00,68.7,66.9,29.99,WNW,295,6.0,6.0,94,0.00,,,0.00,VWS V14.01,2013-03-19 14:15:00,
2013-03-19 09:20:00,69.1,67.0,29.99,NNW,328,3.0,6.0,93,0.00,,,0.00,VWS V14.01,2013-03-19 14:20:00,
2013-03-19 09:25:00,69.3,66.9,30.00,WNW,283,2.0,6.0,92,0.00,,,0.00,VWS V14.01,2013-03-19 14:25:00,
2013-03-19 09:30:00,69.5,67.1,30.00,West,280,2.0,2.0,92,0.00,,,0.00,VWS V14.01,2013-03-19 14:30:00,
2013-03-19 09:35:00,69.9,67.2,30.00,NW,307,2.0,4.0,91,0.00,,,0.00,VWS V14.01,2013-03-19 14:35:00,
2013-03-19 09:40:00,70.3,67.2,30.00,NNW,344,4.0,5.0,90,0.00,,,0.00,VWS V14.01,2013-03-19 14:40:00,
2013-03-19 09:45:00,70.4,66.7,29.99,NW,318,4.0,9.0,88,0.00,,,0.00,VWS V14.01,2013-03-19 14:45:00,
2013-03-19 09:50:00,70.6,66.9,29.99,WNW,288,3.0,9.0,88,0.00,,,0.00,VWS V14.01,2013-03-19 14:50:00,
2013-03-19 09:55:00,70.7,66.7,29.99,NNW,334,7.0,10.0,87,0.00,,,0.00,VWS V14.01,2013-03-19 14:55:00,
2013-03-19 10:00:00,70.7,66.7,29.98,NNE,29,5.0,5.0,87,0.00,,,0.00,VWS V14.01,2013-03-19 15:00:00,
2013-03-19 10:05:00,70.9,66.8,29.99,NNE,27,7.0,7.0,87,0.00,,,0.00,VWS V14.01,2013-03-19 15:05:00,
2013-03-19 10:10:00,71.4,67.3,29.99,NW,323,6.0,7.0,87,0.00,,,0.00,VWS V14.01,2013-03-19 15:10:00,
2013-03-19 10:15:00,71.7,66.9,30.00,NNE,23,7.0,9.0,85,0.00,,,0.00,VWS V14.01,2013-03-19 15:15:00,
2013-03-19 10:20:00,71.7,66.6,30.00,NNE,20,2.0,11.0,84,0.00,,,0.00,VWS V14.01,2013-03-19 15:20:00,
2013-03-19 10:25:00,71.8,66.7,30.00,North,1,5.0,11.0,84,0.00,,,0.00,VWS V14.01,2013-03-19 15:25:00,
2013-03-19 10:30:00,71.8,67.1,30.00,NNE,29,3.0,5.0,85,0.00,,,0.00,VWS V14.01,2013-03-19 15:30:00,
2013-03-19 10:35:00,72.1,67.0,30.01,NNW,348,3.0,8.0,84,0.00,,,0.00,VWS V14.01,2013-03-19 15:35:00,
2013-03-19 10:40:00,72.6,67.5,30.01,NNE,27,4.0,8.0,84,0.00,,,0.00,VWS V14.01,2013-03-19 15:40:00,
2013-03-19 10:45:00,72.9,67.4,30.01,NNW,328,5.0,10.0,83,0.00,,,0.00,VWS V14.01,2013-03-19 15:45:00,
2013-03-19 10:50:00,72.7,67.2,30.00,NW,325,4.0,12.0,83,0.00,,,0.00,VWS V14.01,2013-03-19 15:50:00,
2013-03-19 10:55:00,72.7,66.9,30.00,NE,36,4.0,12.0,82,0.00,,,0.00,VWS V14.01,2013-03-19 15:55:00,
2013-03-19 11:00:00,72.9,66.7,30.00,ENE,57,10.0,10.0,81,0.00,,,0.00,VWS V14.01,2013-03-19 16:00:00,
2013-03-19 11:05:00,73.2,67.0,30.00,NNE,26,5.0,10.0,81,0.00,,,0.00,VWS V14.01,2013-03-19 16:05:00,
2013-03-19 11:10:00,73.2,67.0,30.00,North,4,7.0,12.0,81,0.00,,,0.00,VWS V14.01,2013-03-19 16:10:00,
2013-03-19 11:15:00,73.6,67.4,29.99,NW,326,7.0,12.0,81,0.00,,,0.00,VWS V14.01,2013-03-19 16:15:00,
2013-03-19 11:20:00,73.7,67.2,29.99,NNW,339,8.0,12.0,80,0.00,,,0.00,VWS V14.01,2013-03-19 16:20:00,
2013-03-19 11:25:00,73.8,66.2,29.99,North,9,5.0,12.0,77,0.00,,,0.00,VWS V14.01,2013-03-19 16:25:00,
2013-03-19 11:30:00,74.2,66.5,29.99,NNW,328,10.0,10.0,77,0.00,,,0.00,VWS V14.01,2013-03-19 16:30:00,
2013-03-19 11:35:00,73.9,66.2,29.99,NNE,32,8.0,13.0,77,0.00,,,0.00,VWS V14.01,2013-03-19 16:35:00,
2013-03-19 11:40:00,74.0,66.0,29.98,NW,304,6.0,13.0,76,0.00,,,0.00,VWS V14.01,2013-03-19 16:40:00,
2013-03-19 11:45:00,74.7,66.6,29.98,NNE,32,10.0,13.0,76,0.00,,,0.00,VWS V14.01,2013-03-19 16:45:00,
2013-03-19 11:50:00,74.9,66.4,29.98,ENE,61,6.0,13.0,75,0.00,,,0.00,VWS V14.01,2013-03-19 16:50:00,
2013-03-19 11:55:00,75.0,66.9,29.98,ENE,65,9.0,13.0,76,0.00,,,0.00,VWS V14.01,2013-03-19 16:55:00,
2013-03-19 12:00:00,74.8,66.3,29.98,NE,53,8.0,11.0,75,0.00,,,0.00,VWS V14.01,2013-03-19 17:00:00,
2013-03-19 12:05:00,74.2,65.8,29.97,NE,47,7.0,11.0,75,0.00,,,0.00,VWS V14.01,2013-03-19 17:05:00,
2013-03-19 12:10:00,74.3,66.2,29.98,NNW,331,4.0,11.0,76,0.00,,,0.00,VWS V14.01,2013-03-19 17:10:00,
2013-03-19 12:15:00,74.2,66.5,29.97,NE,43,8.0,11.0,77,0.00,,,0.00,VWS V14.01,2013-03-19 17:15:00,
2013-03-19 12:20:00,73.7,66.8,29.97,NE,39,2.0,11.0,79,0.00,,,0.00,VWS V14.01,2013-03-19 17:20:00,
2013-03-19 12:25:00,73.5,66.6,29.98,ENE,61,1.0,11.0,79,0.00,,,0.00,VWS V14.01,2013-03-19 17:25:00,
2013-03-19 12:30:00,73.5,65.9,29.98,NE,39,5.0,6.0,77,0.00,,,0.00,VWS V14.01,2013-03-19 17:30:00,
2013-03-19 12:35:00,73.4,66.5,29.98,ENE,63,6.0,7.0,79,0.00,,,0.00,VWS V14.01,2013-03-19 17:35:00,
2013-03-19 12:40:00,73.3,66.0,29.97,ENE,64,1.0,7.0,78,0.00,,,0.00,VWS V14.01,2013-03-19 17:40:00,
2013-03-19 12:45:00,73.3,66.0,29.97,West,281,2.0,7.0,78,0.00,,,0.00,VWS V14.01,2013-03-19 17:45:00,
2013-03-19 12:50:00,74.1,66.8,29.97,East,86,3.0,7.0,78,0.00,,,0.00,VWS V14.01,2013-03-19 17:50:00,
2013-03-19 12:55:00,74.5,67.2,29.97,East,86,6.0,7.0,78,0.00,,,0.00,VWS V14.01,2013-03-19 17:55:00,
2013-03-19 13:00:00,74.4,65.6,29.97,East,96,4.0,4.0,74,0.00,,,0.00,VWS V14.01,2013-03-19 18:00:00,
2013-03-19 13:05:00,74.4,66.0,29.98,ESE,120,2.0,5.0,75,0.00,,,0.00,VWS V14.01,2013-03-19 18:05:00,
2013-03-19 13:10:00,74.3,65.9,29.98,ESE,111,3.0,5.0,75,0.00,,,0.00,VWS V14.01,2013-03-19 18:10:00,
2013-03-19 13:15:00,74.5,66.1,29.97,East,95,3.0,5.0,75,0.00,,,0.00,VWS V14.01,2013-03-19 18:15:00,
2013-03-19 13:20:00,74.5,66.4,29.97,NE,40,2.0,5.0,76,0.00,,,0.00,VWS V14.01,2013-03-19 18:20:00,
2013-03-19 13:25:00,74.6,66.2,29.96,ENE,65,3.0,5.0,75,0.00,,,0.00,VWS V14.01,2013-03-19 18:25:00,
2013-03-19 13:30:00,74.9,66.1,29.96,ESE,119,4.0,4.0,74,0.00,,,0.00,VWS V14.01,2013-03-19 18:30:00,
2013-03-19 13:35:00,75.2,66.3,29.96,SE,127,1.0,4.0,74,0.00,,,0.00,VWS V14.01,2013-03-19 18:35:00,
2013-03-19 13:40:00,75.3,66.1,29.95,East,99,2.0,5.0,73,0.00,,,0.00,VWS V14.01,2013-03-19 18:40:00,
2013-03-19 13:45:00,75.6,66.3,29.95,East,89,3.0,6.0,73,0.00,,,0.00,VWS V14.01,2013-03-19 18:45:00,
2013-03-19 13:50:00,75.3,65.3,29.95,ENE,77,5.0,7.0,71,0.00,,,0.00,VWS V14.01,2013-03-19 18:50:00,
2013-03-19 13:55:00,75.1,65.5,29.94,NE,51,5.0,7.0,72,0.00,,,0.00,VWS V14.01,2013-03-19 18:55:00,
2013-03-19 14:00:00,75.3,65.7,29.94,ENE,68,5.0,6.0,72,0.00,,,0.00,VWS V14.01,2013-03-19 19:00:00,
2013-03-19 14:05:00,75.1,65.1,29.94,East,98,4.0,8.0,71,0.00,,,0.00,VWS V14.01,2013-03-19 19:05:00,
2013-03-19 14:10:00,75.1,65.1,29.93,ENE,71,1.0,8.0,71,0.00,,,0.00,VWS V14.01,2013-03-19 19:10:00,
2013-03-19 14:15:00,75.4,65.3,29.93,ESE,117,4.0,8.0,71,0.00,,,0.00,VWS V14.01,2013-03-19 19:15:00,
2013-03-19 14:20:00,75.9,65.4,29.93,ESE,122,4.0,8.0,70,0.00,,,0.00,VWS V14.01,2013-03-19 19:20:00,
2013-03-19 14:25:00,75.8,65.3,29.92,ESE,117,2.0,8.0,70,0.00,,,0.00,VWS V14.01,2013-03-19 19:25:00,
2013-03-19 14:30:00,76.0,65.1,29.92,ESE,105,4.0,4.0,69,0.00,,,0.00,VWS V14.01,2013-03-19 19:30:00,
2013-03-19 14:35:00,76.5,66.0,29.92,SSE,153,1.0,7.0,70,0.00,,,0.00,VWS V14.01,2013-03-19 19:35:00,
2013-03-19 14:40:00,76.7,65.8,29.92,SE,137,3.0,7.0,69,0.00,,,0.00,VWS V14.01,2013-03-19 19:40:00,
2013-03-19 14:45:00,76.5,65.2,29.92,East,96,5.0,7.0,68,0.00,,,0.00,VWS V14.01,2013-03-19 19:45:00,
2013-03-19 14:50:00,76.4,65.9,29.92,SSW,195,4.0,7.0,70,0.00,,,0.00,VWS V14.01,2013-03-19 19:50:00,
2013-03-19 14:55:00,76.7,65.8,29.91,ESE,115,5.0,7.0,69,0.00,,,0.00,VWS V14.01,2013-03-19 19:55:00,
2013-03-19 15:00:00,77.3,66.3,29.91,ENE,77,3.0,4.0,69,0.00,,,0.00,VWS V14.01,2013-03-19 20:00:00,
2013-03-19 15:05:00,77.6,66.6,29.91,ESE,108,3.0,7.0,69,0.00,,,0.00,VWS V14.01,2013-03-19 20:05:00,
2013-03-19 15:10:00,78.1,66.7,29.91,SE,130,2.0,7.0,68,0.00,,,0.00,VWS V14.01,2013-03-19 20:10:00,
2013-03-19 15:15:00,78.2,66.8,29.90,SE,127,3.0,7.0,68,0.00,,,0.00,VWS V14.01,2013-03-19 20:15:00,
2013-03-19 15:20:00,78.2,66.8,29.90,East,95,4.0,8.0,68,0.00,,,0.00,VWS V14.01,2013-03-19 20:20:00,
2013-03-19 15:25:00,78.1,66.3,29.90,East,95,7.0,10.0,67,0.00,,,0.00,VWS V14.01,2013-03-19 20:25:00,
2013-03-19 15:30:00,78.0,66.2,29.90,East,94,9.0,9.0,67,0.00,,,0.00,VWS V14.01,2013-03-19 20:30:00,
2013-03-19 15:35:00,77.6,66.2,29.90,NE,51,2.0,9.0,68,0.00,,,0.00,VWS V14.01,2013-03-19 20:35:00,
2013-03-19 15:40:00,77.7,66.3,29.90,East,84,5.0,9.0,68,0.00,,,0.00,VWS V14.01,2013-03-19 20:40:00,
2013-03-19 15:45:00,77.6,66.6,29.90,SE,141,6.0,9.0,69,0.00,,,0.00,VWS V14.01,2013-03-19 20:45:00,
2013-03-19 15:50:00,77.8,66.8,29.89,NE,55,4.0,9.0,69,0.00,,,0.00,VWS V14.01,2013-03-19 20:50:00,
2013-03-19 15:55:00,77.4,66.4,29.89,SE,131,2.0,9.0,69,0.00,,,0.00,VWS V14.01,2013-03-19 20:55:00,
2013-03-19 16:00:00,77.4,66.4,29.89,East,82,5.0,5.0,69,0.00,,,0.00,VWS V14.01,2013-03-19 21:00:00,
2013-03-19 16:05:00,77.2,65.8,29.90,East,80,6.0,8.0,68,0.00,,,0.00,VWS V14.01,2013-03-19 21:05:00,
2013-03-19 16:10:00,76.9,66.0,29.90,East,89,5.0,8.0,69,0.00,,,0.00,VWS V14.01,2013-03-19 21:10:00,
2013-03-19 16:15:00,77.2,66.2,29.90,ESE,105,4.0,8.0,69,0.00,,,0.00,VWS V14.01,2013-03-19 21:15:00,
2013-03-19 16:20:00,77.5,66.5,29.90,ENE,63,5.0,8.0,69,0.00,,,0.00,VWS V14.01,2013-03-19 21:20:00,
2013-03-19 16:25:00,77.7,66.7,29.90,ENE,77,2.0,8.0,69,0.00,,,0.00,VWS V14.01,2013-03-19 21:25:00,
2013-03-19 16:30:00,77.4,66.4,29.90,ENE,58,4.0,5.0,69,0.00,,,0.00,VWS V14.01,2013-03-19 21:30:00,
2013-03-19 16:35:00,77.0,66.1,29.90,ENE,67,5.0,9.0,69,0.00,,,0.00,VWS V14.01,2013-03-19 21:35:00,
2013-03-19 16:40:00,76.5,66.4,29.90,East,84,4.0,9.0,71,0.00,,,0.00,VWS V14.01,2013-03-19 21:40:00,
2013-03-19 16:45:00,76.8,66.3,29.90,East,91,3.0,9.0,70,0.00,,,0.00,VWS V14.01,2013-03-19 21:45:00,
2013-03-19 16:50:00,76.8,66.7,29.90,East,100,2.0,9.0,71,0.00,,,0.00,VWS V14.01,2013-03-19 21:50:00,
2013-03-19 16:55:00,76.9,66.8,29.90,ESE,117,3.0,9.0,71,0.00,,,0.00,VWS V14.01,2013-03-19 21:55:00,
2013-03-19 17:00:00,76.7,67.0,29.90,ESE,121,5.0,6.0,72,0.00,,,0.00,VWS V14.01,2013-03-19 22:00:00,
2013-03-19 17:05:00,76.8,67.1,29.90,ENE,78,2.0,6.0,72,0.00,,,0.00,VWS V14.01,2013-03-19 22:05:00,
2013-03-19 17:10:00,76.8,67.1,29.90,East,100,4.0,6.0,72,0.00,,,0.00,VWS V14.01,2013-03-19 22:10:00,
2013-03-19 17:15:00,76.7,67.4,29.91,ENE,63,4.0,6.0,73,0.00,,,0.00,VWS V14.01,2013-03-19 22:15:00,
2013-03-19 17:20:00,76.6,67.3,29.91,East,83,2.0,6.0,73,0.00,,,0.00,VWS V14.01,2013-03-19 22:20:00,
2013-03-19 17:25:00,76.4,67.5,29.91,NE,48,3.0,6.0,74,0.00,,,0.00,VWS V14.01,2013-03-19 22:25:00,
2013-03-19 17:30:00,76.1,67.2,29.91,ENE,63,3.0,3.0,74,0.00,,,0.00,VWS V14.01,2013-03-19 22:30:00,
2013-03-19 17:35:00,75.7,66.8,29.91,East,87,4.0,5.0,74,0.00,,,0.00,VWS V14.01,2013-03-19 22:35:00,
2013-03-19 17:40:00,75.5,66.6,29.91,ESE,109,3.0,5.0,74,0.00,,,0.00,VWS V14.01,2013-03-19 22:40:00,
2013-03-19 17:45:00,75.4,66.5,29.91,ENE,68,5.0,6.0,74,0.00,,,0.00,VWS V14.01,2013-03-19 22:45:00,
2013-03-19 17:50:00,75.2,66.7,29.91,East,101,4.0,6.0,75,0.00,,,0.00,VWS V14.01,2013-03-19 22:50:00,
2013-03-19 17:55:00,75.0,66.9,29.91,ENE,72,3.0,6.0,76,0.00,,,0.00,VWS V14.01,2013-03-19 22:55:00,
2013-03-19 18:00:00,74.8,66.7,29.91,East,97,4.0,4.0,76,0.00,,,0.00,VWS V14.01,2013-03-19 23:00:00,
2013-03-19 18:05:00,74.6,66.9,29.91,ESE,107,2.0,4.0,77,0.00,,,0.00,VWS V14.01,2013-03-19 23:05:00,
2013-03-19 18:10:00,74.4,66.7,29.91,East,92,3.0,5.0,77,0.00,,,0.00,VWS V14.01,2013-03-19 23:10:00,
2013-03-19 18:15:00,74.1,66.4,29.91,East,99,3.0,5.0,77,0.00,,,0.00,VWS V14.01,2013-03-19 23:15:00,
2013-03-19 18:20:00,73.8,66.5,29.91,ESE,112,2.0,5.0,78,0.00,,,0.00,VWS V14.01,2013-03-19 23:20:00,
2013-03-19 18:25:00,73.6,66.7,29.91,ENE,75,2.0,5.0,79,0.00,,,0.00,VWS V14.01,2013-03-19 23:25:00,
2013-03-19 18:30:00,73.4,66.9,29.92,ENE,57,4.0,4.0,80,0.00,,,0.00,VWS V14.01,2013-03-19 23:30:00,
2013-03-19 18:35:00,73.0,66.8,29.92,ENE,77,1.0,5.0,81,0.00,,,0.00,VWS V14.01,2013-03-19 23:35:00,
2013-03-19 18:40:00,72.7,67.2,29.92,NE,56,3.0,5.0,83,0.00,,,0.00,VWS V14.01,2013-03-19 23:40:00,
2013-03-19 18:45:00,72.5,67.4,29.92,NE,49,1.0,5.0,84,0.00,,,0.00,VWS V14.01,2013-03-19 23:45:00,
2013-03-19 18:50:00,72.3,67.5,29.92,East,85,2.0,5.0,85,0.00,,,0.00,VWS V14.01,2013-03-19 23:50:00,
2013-03-19 18:55:00,72.1,67.3,29.93,ENE,73,2.0,5.0,85,0.00,,,0.00,VWS V14.01,2013-03-19 23:55:00,
2013-03-19 19:00:00,71.9,67.5,29.93,East,100,3.0,3.0,86,0.00,,,0.00,VWS V14.01,2013-03-20 00:00:00,
2013-03-19 19:05:00,71.8,67.4,29.93,East,91,3.0,4.0,86,0.00,,,0.00,VWS V14.01,2013-03-20 00:05:00,
2013-03-19 19:10:00,71.6,67.2,29.93,ENE,72,2.0,4.0,86,0.00,,,0.00,VWS V14.01,2013-03-20 00:10:00,
2013-03-19 19:15:00,71.5,67.4,29.93,East,98,0.0,4.0,87,0.00,,,0.00,VWS V14.01,2013-03-20 00:15:00,
2013-03-19 19:20:00,71.4,67.3,29.93,East,97,1.0,4.0,87,0.00,,,0.00,VWS V14.01,2013-03-20 00:20:00,
2013-03-19 19:25:00,71.3,67.2,29.93,East,98,1.0,4.0,87,0.00,,,0.00,VWS V14.01,2013-03-20 00:25:00,
2013-03-19 19:30:00,71.1,67.0,29.93,ESE,115,1.0,3.0,87,0.00,,,0.00,VWS V14.01,2013-03-20 00:30:00,
2013-03-19 19:35:00,71.0,67.3,29.93,ESE,103,2.0,4.0,88,0.00,,,0.00,VWS V14.01,2013-03-20 00:35:00,
2013-03-19 19:40:00,70.9,67.2,29.93,East,91,3.0,4.0,88,0.00,,,0.00,VWS V14.01,2013-03-20 00:40:00,
2013-03-19 19:45:00,70.9,67.2,29.93,East,84,1.0,4.0,88,0.00,,,0.00,VWS V14.01,2013-03-20 00:45:00,
2013-03-19 19:50:00,70.8,67.1,29.93,ENE,65,1.0,4.0,88,0.00,,,0.00,VWS V14.01,2013-03-20 00:50:00,
2013-03-19 19:55:00,70.7,67.0,29.93,East,89,2.0,4.0,88,0.00,,,0.00,VWS V14.01,2013-03-20 00:55:00,
2013-03-19 20:00:00,70.8,67.4,29.93,East,81,4.0,4.0,89,0.00,,,0.00,VWS V14.01,2013-03-20 01:00:00,
2013-03-19 20:05:00,70.8,67.4,29.93,East,79,2.0,4.0,89,0.00,,,0.00,VWS V14.01,2013-03-20 01:05:00,
2013-03-19 20:10:00,70.8,67.1,29.93,SE,146,3.0,4.0,88,0.00,,,0.00,VWS V14.01,2013-03-20 01:10:00,
2013-03-19 20:15:00,70.6,67.2,29.93,ESE,120,3.0,4.0,89,0.00,,,0.00,VWS V14.01,2013-03-20 01:15:00,
2013-03-19 20:20:00,70.5,67.1,29.93,ESE,110,3.0,4.0,89,0.00,,,0.00,VWS V14.01,2013-03-20 01:20:00,
2013-03-19 20:25:00,70.3,66.9,29.93,ESE,115,2.0,4.0,89,0.00,,,0.00,VWS V14.01,2013-03-20 01:25:00,
2013-03-19 20:30:00,70.2,66.8,29.94,ESE,115,3.0,3.0,89,0.00,,,0.00,VWS V14.01,2013-03-20 01:30:00,
2013-03-19 20:35:00,70.2,67.1,29.94,SE,134,1.0,3.0,90,0.00,,,0.00,VWS V14.01,2013-03-20 01:35:00,
2013-03-19 20:40:00,69.9,66.8,29.94,SSE,156,1.0,3.0,90,0.00,,,0.00,VWS V14.01,2013-03-20 01:40:00,
2013-03-19 20:45:00,69.7,66.6,29.94,SE,127,0.0,3.0,90,0.00,,,0.00,VWS V14.01,2013-03-20 01:45:00,
2013-03-19 20:50:00,69.5,66.4,29.94,SW,214,1.0,3.0,90,0.00,,,0.00,VWS V14.01,2013-03-20 01:50:00,
2013-03-19 20:55:00,69.2,66.5,29.94,SSE,154,0.0,3.0,91,0.00,,,0.00,VWS V14.01,2013-03-20 01:55:00,
2013-03-19 21:00:00,69.0,66.3,29.94,SSE,154,2.0,2.0,91,0.00,,,0.00,VWS V14.01,2013-03-20 02:00:00,
2013-03-19 21:05:00,68.9,66.5,29.94,SSE,152,0.0,2.0,92,0.00,,,0.00,VWS V14.01,2013-03-20 02:05:00,
2013-03-19 21:10:00,68.9,66.5,29.94,SSE,153,0.0,2.0,92,0.00,,,0.00,VWS V14.01,2013-03-20 02:10:00,
2013-03-19 21:15:00,68.7,66.3,29.94,SSE,153,0.0,2.0,92,0.00,,,0.00,VWS V14.01,2013-03-20 02:15:00,
2013-03-19 21:20:00,68.6,66.2,29.94,SSE,153,0.0,2.0,92,0.00,,,0.00,VWS V14.01,2013-03-20 02:20:00,
2013-03-19 21:25:00,68.4,66.0,29.94,SSE,154,0.0,2.0,92,0.00,,,0.00,VWS V14.01,2013-03-20 02:25:00,
2013-03-19 21:30:00,68.9,67.1,29.94,ESE,107,2.0,2.0,94,0.00,,,0.00,VWS V14.01,2013-03-20 02:30:00,
2013-03-19 21:35:00,69.4,67.3,29.94,SE,136,1.0,2.0,93,0.00,,,0.00,VWS V14.01,2013-03-20 02:35:00,
2013-03-19 21:40:00,69.0,66.6,29.94,SSW,203,0.0,2.0,92,0.00,,,0.00,VWS V14.01,2013-03-20 02:40:00,
2013-03-19 21:45:00,68.9,66.8,29.94,South,188,0.0,2.0,93,0.00,,,0.00,VWS V14.01,2013-03-20 02:45:00,
2013-03-19 21:50:00,68.7,66.6,29.94,SE,143,0.0,2.0,93,0.00,,,0.00,VWS V14.01,2013-03-20 02:50:00,
2013-03-19 21:55:00,68.5,66.1,29.94,SE,143,0.0,2.0,92,0.00,,,0.00,VWS V14.01,2013-03-20 02:55:00,
2013-03-19 22:00:00,68.3,66.2,29.95,SE,131,0.0,0.0,93,0.00,,,0.00,VWS V14.01,2013-03-20 03:00:00,
2013-03-19 22:05:00,68.4,66.3,29.95,SE,131,0.0,0.0,93,0.00,,,0.00,VWS V14.01,2013-03-20 03:05:00,
2013-03-19 22:10:00,68.2,66.1,29.95,SE,131,0.0,0.0,93,0.00,,,0.00,VWS V14.01,2013-03-20 03:10:00,
2013-03-19 22:15:00,68.0,65.9,29.95,SE,131,0.0,0.0,93,0.00,,,0.00,VWS V14.01,2013-03-20 03:15:00,
2013-03-19 22:20:00,68.3,66.5,29.95,SE,131,0.0,0.0,94,0.00,,,0.00,VWS V14.01,2013-03-20 03:20:00,
2013-03-19 22:25:00,68.0,65.9,29.95,SE,131,0.0,0.0,93,0.00,,,0.00,VWS V14.01,2013-03-20 03:25:00,
2013-03-19 22:30:00,67.8,65.7,29.95,SE,131,0.0,0.0,93,0.00,,,0.00,VWS V14.01,2013-03-20 03:30:00,
2013-03-19 22:35:00,67.6,65.8,29.95,SE,131,0.0,0.0,94,0.00,,,0.00,VWS V14.01,2013-03-20 03:35:00,
2013-03-19 22:40:00,67.9,66.1,29.95,SE,131,0.0,0.0,94,0.00,,,0.00,VWS V14.01,2013-03-20 03:40:00,
2013-03-19 22:45:00,67.8,66.0,29.95,SE,131,0.0,0.0,94,0.00,,,0.00,VWS V14.01,2013-03-20 03:45:00,
2013-03-19 22:50:00,67.7,65.9,29.95,SE,131,0.0,0.0,94,0.00,,,0.00,VWS V14.01,2013-03-20 03:50:00,
2013-03-19 22:55:00,67.5,65.7,29.95,SE,131,0.0,0.0,94,0.00,,,0.00,VWS V14.01,2013-03-20 03:55:00,
2013-03-19 23:00:00,67.2,65.4,29.95,SE,131,0.0,0.0,94,0.00,,,0.00,VWS V14.01,2013-03-20 04:00:00,
2013-03-19 23:05:00,67.0,65.2,29.95,SE,131,0.0,0.0,94,0.00,,,0.00,VWS V14.01,2013-03-20 04:05:00,
2013-03-19 23:10:00,66.9,65.1,29.96,SE,131,0.0,0.0,94,0.00,,,0.00,VWS V14.01,2013-03-20 04:10:00,
2013-03-19 23:15:00,66.7,64.9,29.96,SE,131,0.0,0.0,94,0.00,,,0.00,VWS V14.01,2013-03-20 04:15:00,
2013-03-19 23:20:00,66.5,64.7,29.96,SW,233,0.0,0.0,94,0.00,,,0.00,VWS V14.01,2013-03-20 04:20:00,
2013-03-19 23:25:00,66.0,64.2,29.96,WSW,252,2.0,3.0,94,0.00,,,0.00,VWS V14.01,2013-03-20 04:25:00,
2013-03-19 23:30:00,65.5,64.0,29.96,WSW,256,1.0,3.0,95,0.00,,,0.00,VWS V14.01,2013-03-20 04:30:00,
2013-03-19 23:35:00,65.7,64.5,29.96,WSW,256,1.0,3.0,96,0.00,,,0.00,VWS V14.01,2013-03-20 04:35:00,
2013-03-19 23:40:00,65.8,64.6,29.96,WSW,256,0.0,3.0,96,0.00,,,0.00,VWS V14.01,2013-03-20 04:40:00,
2013-03-19 23:45:00,66.0,64.8,29.96,WSW,257,0.0,3.0,96,0.00,,,0.00,VWS V14.01,2013-03-20 04:45:00,
2013-03-19 23:50:00,65.8,64.6,29.96,WSW,248,1.0,4.0,96,0.00,,,0.00,VWS V14.01,2013-03-20 04:50:00,
2013-03-19 23:55:00,65.6,64.4,29.96,WSW,255,3.0,4.0,96,0.00,,,0.00,VWS V14.01,2013-03-20 04:55:00,